Chester, Mississippi
Current Conditions -  °F | °C
As of 1:50 PM on Friday 21 Nov 2014 (Local Time) from KGTR Reporting Station
Few Clouds Few Clouds  
Wind Chill: 64°   Ceiling: Unl
Heat Index: 64°   Visibility: 10mi
Dew Point: 46°   Wind: 9mph
Humidity: 52%   Direction: 110°ESE
Pressure: 30.29"   Gusts: NA
Location:  33.3679°N, 89.2097°W
Report Text: KGTR 211950Z 11008KT 10SM FEW060 18/08 A3029
Loading
Personal Weather Stations






























Interactive Weather Map New forecast layout! Learn more

10-Day Weather Forecast

Advertisements
Track Severe Weather on mobile